createdAt,value
2023-04-29T00:01:03.606Z,62.50
2023-04-29T00:03:32.657Z,62.70
2023-04-29T00:06:00.965Z,62.80
2023-04-29T00:08:29.305Z,62.80
2023-04-29T00:10:57.174Z,62.80
2023-04-29T00:13:26.609Z,62.80
2023-04-29T00:15:54.476Z,62.90
2023-04-29T00:18:22.358Z,62.90
2023-04-29T00:20:50.276Z,62.80
2023-04-29T00:23:18.173Z,63.30
2023-04-29T00:25:46.052Z,62.90
2023-04-29T00:28:13.923Z,62.80
2023-04-29T00:30:43.149Z,62.70
2023-04-29T00:33:11.366Z,62.70
2023-04-29T00:35:39.277Z,62.70
2023-04-29T00:38:07.264Z,62.70
2023-04-29T00:40:35.800Z,62.70
2023-04-29T00:43:03.662Z,62.60
2023-04-29T00:45:31.537Z,62.70
2023-04-29T00:48:00.785Z,62.60
2023-04-29T00:50:28.833Z,62.60
2023-04-29T00:52:56.997Z,62.60
2023-04-29T00:55:26.400Z,62.50
2023-04-29T00:57:54.306Z,62.50
2023-04-29T01:00:22.381Z,62.40
2023-04-29T01:02:50.395Z,62.50
2023-04-29T01:05:20.000Z,62.50
2023-04-29T01:07:53.622Z,62.50
2023-04-29T01:10:25.966Z,62.50
2023-04-29T01:13:00.553Z,62.40
2023-04-29T01:15:30.556Z,62.50
2023-04-29T01:18:01.719Z,62.40
2023-04-29T01:20:31.269Z,62.40
2023-04-29T01:23:00.524Z,62.50
2023-04-29T01:25:29.964Z,62.70
2023-04-29T01:28:09.863Z,62.90
2023-04-29T01:30:43.442Z,63.00
2023-04-29T01:33:15.711Z,64.10
2023-04-29T01:35:48.984Z,63.00
2023-04-29T01:38:22.768Z,63.20
2023-04-29T01:40:59.084Z,63.00
2023-04-29T01:43:30.658Z,63.20
2023-04-29T01:46:01.026Z,63.10
2023-04-29T01:48:29.086Z,63.00
2023-04-29T01:50:57.227Z,62.90
2023-04-29T01:53:25.151Z,62.90
2023-04-29T01:55:54.726Z,62.90
2023-04-29T01:58:31.268Z,62.80
2023-04-29T02:01:33.841Z,62.80
2023-04-29T02:04:01.931Z,62.60
2023-04-29T02:06:32.269Z,62.70
2023-04-29T02:09:03.459Z,62.80
2023-04-29T02:11:33.697Z,62.70
2023-04-29T02:14:03.325Z,62.70
2023-04-29T02:16:31.627Z,62.50
2023-04-29T02:19:03.367Z,62.60
2023-04-29T02:21:31.774Z,62.50
2023-04-29T02:24:02.508Z,62.40
2023-04-29T02:26:30.446Z,62.40
2023-04-29T02:28:59.737Z,62.30
2023-04-29T02:31:29.068Z,62.50
2023-04-29T02:33:57.068Z,62.50
2023-04-29T02:36:25.511Z,62.40
2023-04-29T02:38:55.872Z,62.40
2023-04-29T02:41:23.866Z,62.30
2023-04-29T02:43:51.795Z,62.20
2023-04-29T02:46:21.247Z,62.10
2023-04-29T02:48:49.249Z,62.00
2023-04-29T02:51:17.192Z,62.00
2023-04-29T02:53:45.131Z,61.90
2023-04-29T02:56:13.139Z,61.90
2023-04-29T02:58:42.265Z,62.00
2023-04-29T03:01:10.240Z,62.00
2023-04-29T03:03:40.038Z,62.10
2023-04-29T03:06:08.202Z,62.00
2023-04-29T03:08:36.090Z,62.00
2023-04-29T03:11:04.450Z,62.10
2023-04-29T03:13:32.476Z,62.00
2023-04-29T03:16:01.689Z,62.00
2023-04-29T03:18:29.616Z,62.00
2023-04-29T03:20:58.948Z,61.80
2023-04-29T03:23:27.963Z,61.80
2023-04-29T03:25:56.818Z,61.80
2023-04-29T03:28:26.366Z,61.70
2023-04-29T03:30:54.392Z,62.60
2023-04-29T03:33:22.465Z,61.50
2023-04-29T03:35:51.182Z,61.50
2023-04-29T03:38:26.880Z,61.50
2023-04-29T03:40:56.100Z,61.90
2023-04-29T03:43:24.056Z,62.30
2023-04-29T03:45:52.064Z,62.10
2023-04-29T03:48:23.229Z,61.70
2023-04-29T03:50:52.957Z,61.70
2023-04-29T03:53:21.894Z,61.60
2023-04-29T03:55:51.340Z,61.80
2023-04-29T03:58:19.377Z,61.80
2023-04-29T04:00:47.378Z,61.80
2023-04-29T04:03:20.774Z,61.70
2023-04-29T04:05:49.003Z,61.70
2023-04-29T04:08:17.688Z,61.70
2023-04-29T04:10:55.685Z,61.70
2023-04-29T04:13:33.332Z,61.60
2023-04-29T04:16:01.477Z,61.60
2023-04-29T04:18:29.519Z,61.60
2023-04-29T04:20:58.068Z,61.60
2023-04-29T04:23:27.258Z,61.50
2023-04-29T04:25:58.073Z,61.20
2023-04-29T04:28:53.000Z,61.30
2023-04-29T04:31:35.140Z,61.20
2023-04-29T04:34:03.208Z,61.10
2023-04-29T04:36:33.649Z,61.30
2023-04-29T04:39:01.802Z,61.40
2023-04-29T04:41:32.050Z,61.50
2023-04-29T04:44:00.490Z,61.60
2023-04-29T04:46:40.155Z,61.60
2023-04-29T04:49:17.226Z,61.60
2023-04-29T04:51:51.598Z,61.60
2023-04-29T04:54:19.626Z,61.60
2023-04-29T04:56:52.148Z,61.70
2023-04-29T04:59:20.124Z,61.60
2023-04-29T05:01:48.134Z,61.60
2023-04-29T05:04:16.564Z,61.60
2023-04-29T05:06:44.632Z,61.60
2023-04-29T05:09:12.576Z,61.60
2023-04-29T05:11:41.906Z,61.60
2023-04-29T05:14:14.775Z,61.60
2023-04-29T05:16:43.680Z,61.50
2023-04-29T05:19:11.657Z,61.50
2023-04-29T05:21:41.204Z,61.40
2023-04-29T05:24:11.294Z,61.40
2023-04-29T05:26:39.412Z,61.40
2023-04-29T05:29:08.088Z,61.40
2023-04-29T05:31:46.698Z,61.40
2023-04-29T05:34:15.111Z,61.40
2023-04-29T05:36:43.271Z,61.30
2023-04-29T05:39:11.350Z,61.20
2023-04-29T05:41:39.735Z,61.20
2023-04-29T05:44:20.931Z,61.10
2023-04-29T05:46:51.673Z,61.10
2023-04-29T05:49:20.224Z,61.10
2023-04-29T05:51:48.107Z,61.20
2023-04-29T05:54:15.995Z,61.20
2023-04-29T05:56:44.261Z,61.20
2023-04-29T05:59:12.226Z,61.50
2023-04-29T06:01:40.418Z,61.50
2023-04-29T06:04:10.043Z,61.50
2023-04-29T06:07:13.337Z,61.60
2023-04-29T06:09:55.205Z,61.60
2023-04-29T06:12:23.276Z,61.60
2023-04-29T06:14:51.260Z,61.50
2023-04-29T06:17:19.215Z,61.60
2023-04-29T06:19:48.452Z,61.50
2023-04-29T06:22:16.437Z,61.50
2023-04-29T06:24:50.010Z,61.50
2023-04-29T06:27:26.460Z,61.50
2023-04-29T06:29:54.635Z,61.50
2023-04-29T06:32:23.023Z,61.50
2023-04-29T06:34:52.250Z,61.50
2023-04-29T06:37:27.668Z,61.60
2023-04-29T06:40:14.300Z,61.80
2023-04-29T06:43:04.587Z,61.70
2023-04-29T06:45:52.084Z,61.80
2023-04-29T06:48:42.897Z,61.70
2023-04-29T06:51:12.258Z,61.70
2023-04-29T06:53:40.230Z,61.70
2023-04-29T06:56:08.871Z,61.70
2023-04-29T06:58:36.782Z,61.80
2023-04-29T07:01:05.808Z,61.80
2023-04-29T07:03:33.903Z,61.90
2023-04-29T07:06:01.884Z,62.00
2023-04-29T07:08:32.193Z,62.20
2023-04-29T07:11:00.135Z,62.30
2023-04-29T07:13:28.112Z,62.40
2023-04-29T07:15:56.021Z,62.50
2023-04-29T07:18:24.123Z,62.50
2023-04-29T07:20:52.919Z,62.50
2023-04-29T07:23:20.955Z,62.60
2023-04-29T07:25:50.236Z,62.60
2023-04-29T07:28:18.649Z,62.70
2023-04-29T07:30:47.050Z,62.70
2023-04-29T07:33:15.069Z,62.60
2023-04-29T07:35:44.539Z,62.60
2023-04-29T07:38:12.944Z,62.60
2023-04-29T07:40:42.864Z,62.70
2023-04-29T07:43:13.060Z,62.60
2023-04-29T07:45:41.530Z,62.50
2023-04-29T07:48:09.444Z,62.50
2023-04-29T07:50:37.687Z,62.60
2023-04-29T07:53:05.583Z,62.70
2023-04-29T07:55:33.523Z,62.70
2023-04-29T07:58:02.466Z,62.70
2023-04-29T08:00:31.772Z,62.70
2023-04-29T08:02:59.830Z,62.80
2023-04-29T08:05:28.198Z,62.70
2023-04-29T08:07:56.618Z,62.70
2023-04-29T08:10:27.281Z,63.00
2023-04-29T08:12:56.061Z,63.00
2023-04-29T08:15:24.170Z,62.80
2023-04-29T08:17:53.759Z,63.10
2023-04-29T08:20:21.812Z,63.30
2023-04-29T08:22:49.769Z,63.40
2023-04-29T08:25:17.823Z,63.30
2023-04-29T08:27:46.081Z,63.20
2023-04-29T08:30:14.643Z,63.10
2023-04-29T08:32:42.682Z,62.80
2023-04-29T08:35:12.936Z,62.60
2023-04-29T08:37:40.784Z,62.40
2023-04-29T08:40:10.114Z,62.30
2023-04-29T08:42:38.514Z,62.40
2023-04-29T08:45:07.259Z,62.30
2023-04-29T08:47:35.367Z,62.20
2023-04-29T08:50:05.202Z,62.30
2023-04-29T08:52:34.600Z,62.90
2023-04-29T08:55:03.418Z,62.60
2023-04-29T08:57:31.400Z,62.70
2023-04-29T09:00:00.969Z,63.60
2023-04-29T09:02:29.012Z,63.40
2023-04-29T09:05:07.440Z,63.40
2023-04-29T09:07:36.759Z,63.30
2023-04-29T09:10:05.963Z,63.40
2023-04-29T09:12:33.936Z,63.90
2023-04-29T09:15:01.858Z,64.10
2023-04-29T09:17:42.967Z,63.60
2023-04-29T09:20:30.306Z,63.40
2023-04-29T09:23:01.185Z,63.80
2023-04-29T09:25:29.178Z,63.70
2023-04-29T09:27:57.027Z,63.90
2023-04-29T09:30:26.844Z,63.80
2023-04-29T09:33:08.351Z,63.70
2023-04-29T09:35:36.991Z,63.80
2023-04-29T09:38:13.495Z,63.70
2023-04-29T09:40:54.490Z,63.70
2023-04-29T09:43:26.753Z,63.60
2023-04-29T09:45:54.841Z,63.60
2023-04-29T09:48:22.953Z,63.50
2023-04-29T09:51:01.436Z,63.50
2023-04-29T09:53:31.414Z,63.40
2023-04-29T09:56:00.006Z,63.30
2023-04-29T09:58:34.119Z,63.40
2023-04-29T10:01:02.598Z,63.20
2023-04-29T10:03:33.433Z,63.20
2023-04-29T10:06:01.852Z,63.20
2023-04-29T10:08:31.683Z,63.10
2023-04-29T10:11:01.188Z,63.10
2023-04-29T10:13:29.314Z,63.20
2023-04-29T10:16:00.223Z,63.30
2023-04-29T10:18:32.067Z,63.40
2023-04-29T10:20:59.940Z,63.30
2023-04-29T10:23:27.863Z,63.30
2023-04-29T10:25:57.397Z,63.10
2023-04-29T10:28:25.348Z,63.00
2023-04-29T10:30:53.427Z,62.90
2023-04-29T10:33:21.639Z,62.70
2023-04-29T10:35:49.820Z,62.50
2023-04-29T10:38:22.879Z,62.30
2023-04-29T10:40:50.786Z,62.20
2023-04-29T10:43:23.491Z,62.00
2023-04-29T10:45:51.423Z,62.00
2023-04-29T10:48:21.878Z,61.70
2023-04-29T10:51:05.912Z,61.70
2023-04-29T10:53:34.271Z,61.40
2023-04-29T10:56:07.175Z,61.30
2023-04-29T10:58:44.396Z,61.00
2023-04-29T11:01:13.189Z,60.90
2023-04-29T11:03:49.220Z,60.80
2023-04-29T11:06:17.475Z,60.50
2023-04-29T11:08:45.451Z,60.50
2023-04-29T11:11:14.556Z,60.30
2023-04-29T11:13:44.075Z,60.20
2023-04-29T11:16:12.560Z,60.00
2023-04-29T11:19:07.973Z,59.90
2023-04-29T11:21:36.610Z,59.80
2023-04-29T11:24:06.379Z,59.80
2023-04-29T11:26:35.564Z,59.70
2023-04-29T11:29:05.562Z,59.50
2023-04-29T11:31:33.703Z,59.40
2023-04-29T11:34:01.748Z,59.40
2023-04-29T11:36:29.667Z,59.40
2023-04-29T11:38:58.058Z,59.40
2023-04-29T11:41:25.917Z,60.30
2023-04-29T11:43:56.995Z,59.10
2023-04-29T11:46:26.318Z,58.90
2023-04-29T11:48:54.300Z,58.90
2023-04-29T11:51:22.513Z,58.90
2023-04-29T11:53:50.430Z,58.80
2023-04-29T11:56:18.269Z,58.80
2023-04-29T11:58:46.145Z,58.70
2023-04-29T12:01:14.069Z,58.60
2023-04-29T12:03:43.604Z,58.50
2023-04-29T12:06:11.647Z,58.40
2023-04-29T12:08:39.568Z,58.50
2023-04-29T12:11:08.061Z,58.40
2023-04-29T12:13:36.568Z,58.40
2023-04-29T12:16:05.029Z,58.30
2023-04-29T12:18:32.965Z,58.20
2023-04-29T12:21:02.151Z,58.10
2023-04-29T12:23:30.023Z,58.00
2023-04-29T12:25:58.713Z,58.00
2023-04-29T12:28:26.886Z,57.80
2023-04-29T12:30:55.418Z,57.70
2023-04-29T12:33:24.605Z,57.70
2023-04-29T12:35:52.648Z,57.60
2023-04-29T12:38:26.971Z,57.50
2023-04-29T12:40:55.387Z,57.40
2023-04-29T12:43:27.649Z,57.30
2023-04-29T12:45:55.982Z,57.20
2023-04-29T12:48:30.117Z,57.00
2023-04-29T12:51:00.329Z,57.00
2023-04-29T12:53:30.815Z,57.10
2023-04-29T12:55:58.902Z,57.30
2023-04-29T12:58:29.278Z,57.30
2023-04-29T13:00:57.492Z,57.30
2023-04-29T13:03:25.874Z,57.20
2023-04-29T13:05:54.796Z,57.10
2023-04-29T13:08:23.067Z,57.30
2023-04-29T13:10:53.609Z,57.10
2023-04-29T13:13:21.569Z,57.10
2023-04-29T13:15:49.453Z,57.10
2023-04-29T13:18:17.473Z,57.00
2023-04-29T13:20:45.621Z,56.90
2023-04-29T13:23:13.492Z,57.10
2023-04-29T13:25:41.472Z,57.00
2023-04-29T13:28:11.489Z,57.00
2023-04-29T13:30:39.375Z,57.00
2023-04-29T13:33:12.288Z,56.80
2023-04-29T13:35:41.640Z,57.90
2023-04-29T13:38:09.826Z,58.00
2023-04-29T13:40:41.759Z,57.00
2023-04-29T13:43:16.928Z,57.00
2023-04-29T13:45:53.177Z,57.10
2023-04-29T13:49:00.779Z,57.00
2023-04-29T13:59:36.952Z,57.10
2023-04-29T14:04:12.665Z,57.20
2023-04-29T14:06:40.752Z,57.20
2023-04-29T14:09:08.683Z,57.30
2023-04-29T14:11:36.891Z,57.60
2023-04-29T14:14:06.336Z,57.90
2023-04-29T14:16:34.504Z,58.20
2023-04-29T14:19:04.030Z,58.30
2023-04-29T14:21:33.307Z,58.40
2023-04-29T14:24:02.414Z,58.60
2023-04-29T14:26:30.956Z,58.80
2023-04-29T14:28:59.456Z,58.70
2023-04-29T14:31:29.641Z,58.90
2023-04-29T14:33:57.826Z,58.70
2023-04-29T14:36:26.359Z,58.60
2023-04-29T14:38:54.349Z,58.90
2023-04-29T14:41:22.500Z,58.80
2023-04-29T14:43:50.400Z,58.70
2023-04-29T14:46:18.381Z,58.90
2023-04-29T14:48:47.662Z,58.80
2023-04-29T14:51:15.549Z,59.00
2023-04-29T14:53:43.414Z,59.30
2023-04-29T14:56:11.308Z,59.40
2023-04-29T14:58:39.245Z,59.50
2023-04-29T15:01:07.184Z,59.60
2023-04-29T15:06:09.429Z,60.10
2023-04-29T15:08:38.227Z,60.40
2023-04-29T15:11:06.123Z,60.60
2023-04-29T15:13:34.022Z,60.80
2023-04-29T15:16:01.947Z,60.90
2023-04-29T15:18:29.862Z,62.00
2023-04-29T15:20:57.741Z,61.20
2023-04-29T15:23:27.030Z,61.20
2023-04-29T15:25:54.935Z,61.40
2023-04-29T15:28:24.534Z,61.70
2023-04-29T15:30:52.479Z,61.60
2023-04-29T15:33:20.501Z,61.70
2023-04-29T15:35:48.478Z,61.70
2023-04-29T15:38:16.338Z,61.70
2023-04-29T15:40:46.424Z,61.50
2023-04-29T15:43:14.364Z,61.70
2023-04-29T15:45:42.481Z,61.80
2023-04-29T15:48:10.514Z,61.80
2023-04-29T15:50:38.556Z,61.80
2023-04-29T15:53:06.472Z,62.10
2023-04-29T15:55:35.528Z,62.20
2023-04-29T15:58:04.749Z,63.20
2023-04-29T16:00:32.673Z,62.20
2023-04-29T16:03:00.658Z,62.00
2023-04-29T16:05:29.664Z,62.10
2023-04-29T16:07:57.578Z,62.20
2023-04-29T16:10:25.597Z,62.30
2023-04-29T16:12:53.556Z,62.40
2023-04-29T16:15:22.839Z,62.50
2023-04-29T16:17:50.775Z,62.60
2023-04-29T16:20:19.314Z,62.60
2023-04-29T16:22:47.271Z,62.70
2023-04-29T16:25:15.362Z,62.70
2023-04-29T16:27:43.237Z,62.70
2023-04-29T16:30:11.672Z,62.70
2023-04-29T16:32:41.614Z,62.80
2023-04-29T16:35:10.618Z,62.90
2023-04-29T16:37:38.695Z,62.90
2023-04-29T16:40:07.869Z,62.80
2023-04-29T16:42:36.081Z,62.90
2023-04-29T16:45:04.123Z,62.90
2023-04-29T16:47:32.076Z,62.90
2023-04-29T16:50:01.460Z,63.00
2023-04-29T16:52:29.418Z,63.00
2023-04-29T16:54:57.292Z,63.00
2023-04-29T16:57:26.578Z,63.00
2023-04-29T16:59:54.709Z,63.00
2023-04-29T17:02:22.866Z,63.00
2023-04-29T17:04:50.836Z,63.10
2023-04-29T17:07:20.292Z,63.10
2023-04-29T17:09:48.417Z,63.10
2023-04-29T17:12:16.355Z,63.20
2023-04-29T17:14:44.276Z,63.20
2023-04-29T17:17:12.168Z,63.20
2023-04-29T17:19:40.124Z,63.20
2023-04-29T17:22:08.024Z,63.20
2023-04-29T17:24:37.292Z,63.20
2023-04-29T17:27:05.582Z,64.20
2023-04-29T17:29:33.515Z,63.30
2023-04-29T17:32:03.402Z,63.30
2023-04-29T17:34:33.975Z,63.30
2023-04-29T17:37:01.951Z,63.30
2023-04-29T17:39:30.121Z,63.30
2023-04-29T17:41:59.393Z,63.40
2023-04-29T17:44:27.291Z,63.40
2023-04-29T17:46:55.183Z,63.50
2023-04-29T17:49:23.058Z,63.40
2023-04-29T17:51:50.956Z,63.40
2023-04-29T17:54:18.879Z,63.50
2023-04-29T17:56:46.742Z,63.50
2023-04-29T17:59:16.536Z,63.50
2023-04-29T18:01:44.452Z,63.50
2023-04-29T18:04:12.980Z,63.50
2023-04-29T18:06:41.082Z,63.50
2023-04-29T18:09:09.512Z,63.50
2023-04-29T18:11:37.379Z,63.50
2023-04-29T18:14:05.756Z,63.60
2023-04-29T18:16:35.194Z,63.50
2023-04-29T18:19:03.135Z,63.50
2023-04-29T18:21:31.895Z,63.60
2023-04-29T18:23:59.799Z,63.60
2023-04-29T18:26:27.696Z,63.50
2023-04-29T18:28:55.635Z,63.60
2023-04-29T18:31:26.330Z,63.50
2023-04-29T18:33:55.761Z,63.60
2023-04-29T18:36:23.720Z,63.50
2023-04-29T18:38:51.587Z,63.60
2023-04-29T18:41:19.467Z,63.50
2023-04-29T18:43:47.345Z,63.60
2023-04-29T18:46:15.268Z,63.60
2023-04-29T18:48:43.554Z,63.50
2023-04-29T18:51:12.803Z,63.60
2023-04-29T18:53:40.655Z,63.60
2023-04-29T18:56:08.565Z,63.60
2023-04-29T18:58:36.558Z,63.60
2023-04-29T19:01:04.525Z,63.50
2023-04-29T19:03:32.611Z,63.60
2023-04-29T19:06:00.500Z,63.50
2023-04-29T19:08:29.808Z,63.50
2023-04-29T19:10:59.965Z,63.60
2023-04-29T19:13:29.350Z,63.50
2023-04-29T19:15:59.371Z,63.60
2023-04-29T19:18:27.930Z,63.50
2023-04-29T19:20:56.143Z,63.50
2023-04-29T19:23:24.116Z,63.50
2023-04-29T19:25:53.384Z,63.40
2023-04-29T19:28:21.293Z,63.50
2023-04-29T19:30:49.129Z,63.40
2023-04-29T19:33:17.169Z,63.50
2023-04-29T19:35:45.151Z,63.50
2023-04-29T19:38:13.067Z,63.40
2023-04-29T19:40:40.979Z,63.40
2023-04-29T19:43:10.288Z,63.40
2023-04-29T19:45:38.158Z,63.20
2023-04-29T19:48:06.477Z,63.40
2023-04-29T19:50:34.538Z,63.30
2023-04-29T19:53:02.468Z,63.30
2023-04-29T19:55:30.431Z,63.40
2023-04-29T19:57:58.507Z,63.50
2023-04-29T20:00:27.796Z,63.40
2023-04-29T20:02:56.648Z,63.50
2023-04-29T20:05:24.837Z,63.60
2023-04-29T20:07:52.782Z,63.50
2023-04-29T20:10:20.697Z,63.60
2023-04-29T20:12:48.626Z,63.60
2023-04-29T20:15:16.567Z,63.80
2023-04-29T20:17:45.860Z,63.80
2023-04-29T20:20:13.857Z,63.50
2023-04-29T20:22:41.727Z,63.50
2023-04-29T20:25:10.692Z,63.70
2023-04-29T20:27:38.633Z,63.70
2023-04-29T20:30:08.752Z,63.80
2023-04-29T20:32:37.043Z,64.00
2023-04-29T20:35:08.205Z,64.00
2023-04-29T20:37:36.173Z,64.00
2023-04-29T20:40:06.349Z,64.30
2023-04-29T20:42:34.252Z,64.90
2023-04-29T20:45:02.228Z,65.50
2023-04-29T20:47:30.158Z,65.90
2023-04-29T20:49:58.149Z,66.10
2023-04-29T20:52:27.614Z,66.10
2023-04-29T20:54:55.570Z,66.20
2023-04-29T20:57:23.493Z,66.10
2023-04-29T20:59:51.505Z,65.70
2023-04-29T21:02:19.595Z,65.50
2023-04-29T21:04:47.657Z,65.50
2023-04-29T21:07:15.640Z,65.50
2023-04-29T21:09:44.886Z,65.60
2023-04-29T21:12:14.885Z,65.60
2023-04-29T21:14:43.050Z,65.60
2023-04-29T21:17:11.030Z,65.70
2023-04-29T21:19:38.972Z,65.60
2023-04-29T21:22:06.978Z,65.70
2023-04-29T21:24:34.829Z,65.70
2023-04-29T21:27:04.226Z,65.90
2023-04-29T21:29:34.504Z,66.80
2023-04-29T21:32:02.455Z,65.90
2023-04-29T21:34:30.584Z,65.80
2023-04-29T21:36:58.438Z,65.80
2023-04-29T21:39:26.383Z,66.00
2023-04-29T21:41:54.294Z,66.20
2023-04-29T21:44:23.511Z,66.60
2023-04-29T21:46:51.480Z,66.80
2023-04-29T21:49:19.372Z,67.00
2023-04-29T21:51:47.245Z,67.10
2023-04-29T21:54:15.098Z,67.10
2023-04-29T21:56:42.992Z,67.10
2023-04-29T21:59:10.882Z,67.00
2023-04-29T22:01:49.256Z,67.20
2023-04-29T22:04:17.328Z,67.30
2023-04-29T22:06:45.258Z,67.40
2023-04-29T22:09:13.286Z,67.50
2023-04-29T22:11:41.393Z,67.50
2023-04-29T22:14:09.326Z,67.70
2023-04-29T22:16:37.416Z,67.70
2023-04-29T22:19:07.124Z,67.80
2023-04-29T22:21:35.049Z,67.90
2023-04-29T22:24:03.019Z,67.90
2023-04-29T22:26:31.138Z,67.90
2023-04-29T22:28:59.055Z,68.30
2023-04-29T22:31:27.542Z,68.30
2023-04-29T22:33:55.517Z,68.30
2023-04-29T22:36:24.813Z,68.40
2023-04-29T22:38:52.716Z,68.60
2023-04-29T22:41:21.725Z,68.70
2023-04-29T22:43:49.645Z,68.70
2023-04-29T22:46:17.756Z,68.80
2023-04-29T22:48:45.854Z,68.90
2023-04-29T22:51:13.713Z,69.00
2023-04-29T22:53:42.938Z,68.90
2023-04-29T22:56:10.804Z,69.10
2023-04-29T22:58:39.500Z,69.10
2023-04-29T23:01:08.205Z,69.10
2023-04-29T23:03:38.800Z,69.10
2023-04-29T23:06:06.987Z,69.10
2023-04-29T23:08:34.932Z,69.10
2023-04-29T23:11:04.242Z,69.10
2023-04-29T23:13:32.513Z,69.10
2023-04-29T23:16:01.351Z,69.20
2023-04-29T23:18:29.493Z,69.20
2023-04-29T23:20:57.462Z,69.60
2023-04-29T23:23:25.553Z,69.10
2023-04-29T23:25:53.547Z,69.10
2023-04-29T23:28:24.568Z,69.10
2023-04-29T23:30:52.699Z,69.10
2023-04-29T23:33:20.710Z,69.20
2023-04-29T23:35:52.046Z,69.20
2023-04-29T23:38:20.213Z,69.20
2023-04-29T23:40:48.285Z,69.30
2023-04-29T23:43:16.179Z,69.20
2023-04-29T23:45:47.415Z,69.30
2023-04-29T23:48:16.134Z,69.40
2023-04-29T23:50:43.996Z,69.50
2023-04-29T23:53:11.875Z,69.50
2023-04-29T23:55:39.820Z,69.50
2023-04-29T23:58:07.691Z,69.60
